Time;durP1;ratioP1;P1;durP2;ratioP2;P2;SDS_P1;SDS_P2;PMS_P1;PMS_P2;Temp;Humidity;BMP_temperature;BMP_pressure;BME280_temperature;BME280_humidity;BME280_pressure;Samples;Min_cycle;Max_cycle;Signal;HPM_P1;HPM_P2
2023/08/03 00:13:03;;;;;;;3.58;1.40;;;20.10;99.90;;;;;;4186320;28;20248;-58
2023/08/03 00:15:23;;;;;;;2.55;1.35;;;20.00;99.90;;;;;;4181151;28;20056;-58
2023/08/03 00:17:43;;;;;;;2.53;2.03;;;20.20;99.90;;;;;;4178218;28;20079;-58
2023/08/03 00:20:05;;;;;;;1.40;1.30;;;20.20;99.90;;;;;;4178629;28;20052;-58
2023/08/03 00:22:25;;;;;;;2.67;1.38;;;20.20;99.90;;;;;;4185113;28;20382;-58
2023/08/03 00:24:45;;;;;;;2.47;1.20;;;20.30;99.90;;;;;;4177398;28;20125;-58
2023/08/03 00:27:05;;;;;;;2.13;1.20;;;20.20;99.90;;;;;;4178477;28;20086;-58
2023/08/03 00:29:25;;;;;;;2.00;1.25;;;20.40;99.90;;;;;;4179315;28;20060;-58
2023/08/03 00:31:44;;;;;;;4.97;1.33;;;20.30;99.90;;;;;;4180066;28;20052;-58
2023/08/03 00:34:05;;;;;;;2.33;1.30;;;20.20;99.90;;;;;;4179784;28;20298;-58
2023/08/03 00:36:24;;;;;;;2.08;1.70;;;20.10;99.90;;;;;;4180758;28;20063;-58
2023/08/03 00:38:44;;;;;;;1.77;1.25;;;20.10;99.90;;;;;;4179906;28;20047;-58
2023/08/03 00:41:03;;;;;;;2.35;1.45;;;20.30;99.90;;;;;;4179992;28;20127;-58
2023/08/03 00:43:24;;;;;;;1.30;1.20;;;20.30;99.90;;;;;;4176566;28;20060;-58
2023/08/03 00:45:44;;;;;;;1.80;1.33;;;20.30;99.90;;;;;;4181846;28;20296;-58
2023/08/03 00:48:04;;;;;;;1.73;1.35;;;20.30;99.90;;;;;;4178452;28;20079;-57
2023/08/03 00:50:26;;;;;;;3.67;1.30;;;20.30;99.90;;;;;;4176055;28;20079;-58
2023/08/03 00:52:46;;;;;;;2.00;1.50;;;20.30;99.90;;;;;;4179166;28;20056;-58
2023/08/03 00:55:06;;;;;;;1.67;1.42;;;20.20;99.90;;;;;;4178260;28;20044;-58
2023/08/03 00:57:30;;;;;;;3.80;2.17;;;20.10;99.90;;;;;;4181876;28;20057;-57
2023/08/03 00:59:50;;;;;;;5.22;1.60;;;20.00;99.90;;;;;;4175946;28;20402;-57
2023/08/03 01:02:10;;;;;;;4.53;1.60;;;20.00;99.90;;;;;;4172651;28;20049;-57
2023/08/03 01:04:30;;;;;;;3.75;2.28;;;19.90;99.90;;;;;;4172033;28;20313;-57
2023/08/03 01:06:52;;;;;;;2.17;2.08;;;19.70;99.90;;;;;;4175330;28;20084;-58
2023/08/03 01:09:11;;;;;;;1.50;1.40;;;19.70;99.90;;;;;;4178610;28;20083;-57
2023/08/03 01:11:31;;;;;;;2.00;1.27;;;19.70;99.90;;;;;;4180199;28;20229;-57
2023/08/03 01:13:51;;;;;;;5.10;1.40;;;19.70;99.90;;;;;;4179148;28;20341;-57
2023/08/03 01:16:11;;;;;;;2.92;1.27;;;19.70;99.90;;;;;;4177937;28;20052;-57
2023/08/03 01:18:31;;;;;;;6.03;2.28;;;19.70;99.90;;;;;;4181256;28;20048;-57
2023/08/03 01:20:51;;;;;;;1.50;1.40;;;19.60;99.90;;;;;;4180479;28;20088;-57
2023/08/03 01:23:11;;;;;;;4.35;1.67;;;19.50;99.90;;;;;;4175692;28;20052;-57
2023/08/03 01:25:33;;;;;;;2.90;1.55;;;19.50;99.90;;;;;;4172417;28;20080;-57
2023/08/03 01:27:52;;;;;;;2.85;1.67;;;19.40;99.90;;;;;;4176468;28;20088;-57
2023/08/03 01:30:13;;;;;;;4.13;1.85;;;19.40;99.90;;;;;;4182512;28;20238;-57
2023/08/03 01:32:33;;;;;;;4.82;2.15;;;19.30;99.90;;;;;;4182495;28;20044;-57
2023/08/03 01:34:53;;;;;;;2.15;1.38;;;19.30;99.90;;;;;;4181277;28;20052;-57
2023/08/03 01:37:12;;;;;;;4.53;2.42;;;19.20;99.90;;;;;;4183433;28;20039;-57
2023/08/03 01:39:32;;;;;;;3.75;1.95;;;19.10;99.90;;;;;;4182743;28;20047;-57
2023/08/03 01:41:52;;;;;;;5.03;1.70;;;19.10;99.90;;;;;;4180657;28;20140;-57
2023/08/03 01:44:27;;;;;;;2.05;1.73;;;19.10;99.90;;;;;;4181946;28;20056;-57
2023/08/03 01:46:48;;;;;;;2.03;1.92;;;19.10;99.90;;;;;;4180696;28;20040;-57
2023/08/03 01:49:08;;;;;;;2.30;1.40;;;19.10;99.90;;;;;;4178282;28;20052;-57
2023/08/03 01:51:28;;;;;;;3.90;1.92;;;19.20;99.90;;;;;;4181264;28;20052;-57
2023/08/03 01:53:47;;;;;;;2.38;1.60;;;19.30;99.90;;;;;;4183216;28;20135;-57
2023/08/03 01:56:07;;;;;;;1.45;1.35;;;19.30;99.90;;;;;;4181168;28;20052;-58
2023/08/03 01:58:27;;;;;;;4.10;1.77;;;19.30;99.90;;;;;;4182238;28;20083;-58
2023/08/03 02:00:46;;;;;;;2.50;1.42;;;19.30;99.90;;;;;;4181537;28;20109;-57
2023/08/03 02:03:09;;;;;;;2.03;1.88;;;19.20;99.90;;;;;;4182304;28;20386;-57
2023/08/03 02:05:29;;;;;;;1.92;1.83;;;19.10;99.90;;;;;;4181327;28;20086;-57
2023/08/03 02:07:56;;;;;;;2.92;1.60;;;19.10;99.90;;;;;;4181424;28;20051;-57
2023/08/03 02:10:16;;;;;;;1.60;1.30;;;19.10;99.90;;;;;;4185087;28;20063;-57
2023/08/03 02:12:35;;;;;;;2.35;1.67;;;19.00;99.90;;;;;;4180118;28;20053;-57
2023/08/03 02:14:55;;;;;;;2.88;2.20;;;19.00;99.90;;;;;;4178679;28;20379;-57
2023/08/03 02:17:15;;;;;;;3.30;2.00;;;18.80;99.90;;;;;;4183120;28;20079;-57
2023/08/03 02:19:37;;;;;;;2.70;1.63;;;18.70;99.90;;;;;;4180442;28;20087;-57
2023/08/03 02:21:58;;;;;;;1.80;1.70;;;18.50;99.90;;;;;;4177910;28;20079;-58
2023/08/03 02:24:18;;;;;;;2.10;1.70;;;18.50;99.90;;;;;;4181486;28;20055;-57
2023/08/03 02:26:38;;;;;;;4.75;1.70;;;18.50;99.90;;;;;;4183985;28;20113;-57
2023/08/03 02:28:58;;;;;;;1.60;1.50;;;18.60;99.90;;;;;;4186458;28;20278;-57
2023/08/03 02:31:18;;;;;;;4.13;1.85;;;18.80;99.90;;;;;;4179151;28;20092;-57
2023/08/03 02:33:38;;;;;;;5.88;2.40;;;18.90;99.90;;;;;;4182638;28;20392;-57
2023/08/03 02:35:58;;;;;;;3.83;1.73;;;18.90;99.90;;;;;;4182147;28;20136;-57
2023/08/03 02:38:18;;;;;;;1.27;1.27;;;19.00;99.90;;;;;;4180554;28;20255;-57
2023/08/03 02:40:38;;;;;;;2.17;1.50;;;19.20;99.90;;;;;;4181145;28;20087;-57
2023/08/03 02:42:58;;;;;;;2.58;1.77;;;19.20;99.90;;;;;;4181628;28;20105;-57
2023/08/03 02:45:18;;;;;;;3.22;1.73;;;19.40;99.90;;;;;;4181076;28;20240;-57
2023/08/03 02:47:38;;;;;;;1.70;1.60;;;19.40;99.90;;;;;;4178800;28;20366;-57
2023/08/03 02:49:58;;;;;;;3.00;2.13;;;19.30;99.90;;;;;;4181559;28;20051;-57
2023/08/03 02:52:18;;;;;;;2.55;1.88;;;19.40;99.90;;;;;;4182750;28;20052;-57
2023/08/03 02:54:38;;;;;;;1.55;1.45;;;19.50;99.90;;;;;;4181164;28;20052;-57
2023/08/03 02:56:57;;;;;;;1.77;1.27;;;19.70;99.90;;;;;;4181029;28;20045;-57
2023/08/03 02:59:18;;;;;;;1.73;1.63;;;19.70;99.90;;;;;;4181845;28;20099;-57
2023/08/03 03:01:38;;;;;;;1.50;1.40;;;19.70;99.90;;;;;;4182810;28;20105;-58
2023/08/03 03:03:58;;;;;;;1.70;1.60;;;19.70;99.90;;;;;;4181063;28;20362;-57
2023/08/03 03:06:17;;;;;;;3.45;2.38;;;19.90;99.90;;;;;;4179822;28;20355;-57
2023/08/03 03:08:38;;;;;;;1.63;1.50;;;20.00;99.90;;;;;;4180800;28;20060;-57
2023/08/03 03:10:57;;;;;;;5.22;1.77;;;20.10;99.90;;;;;;4180210;28;20052;-57
2023/08/03 03:13:17;;;;;;;3.47;1.75;;;20.10;99.90;;;;;;4179795;28;20112;-57
2023/08/03 03:15:38;;;;;;;2.75;2.65;;;20.20;99.90;;;;;;4179687;28;20048;-57
2023/08/03 03:17:58;;;;;;;2.05;1.92;;;20.20;99.90;;;;;;4184253;28;20044;-57
2023/08/03 03:20:18;;;;;;;2.03;1.67;;;20.20;99.90;;;;;;4179184;28;20417;-57
2023/08/03 03:22:38;;;;;;;5.63;2.35;;;20.20;99.90;;;;;;4179354;28;20446;-57
2023/08/03 03:24:58;;;;;;;3.72;2.35;;;20.10;99.90;;;;;;4180648;28;20051;-57
2023/08/03 03:27:18;;;;;;;2.35;1.77;;;20.10;99.90;;;;;;4180616;28;20055;-57
2023/08/03 03:29:38;;;;;;;4.03;2.17;;;20.10;99.90;;;;;;4182433;28;20126;-57
2023/08/03 03:31:58;;;;;;;2.35;2.25;;;20.10;99.90;;;;;;4181748;28;20314;-57
2023/08/03 03:34:21;;;;;;;3.35;2.60;;;20.20;99.90;;;;;;4180003;28;20048;-57
2023/08/03 03:36:40;;;;;;;4.20;2.17;;;20.20;99.90;;;;;;4190132;28;20143;-56
2023/08/03 03:39:01;;;;;;;3.53;2.80;;;20.20;99.90;;;;;;4178252;28;20047;-57
2023/08/03 03:41:21;;;;;;;2.47;2.30;;;20.20;99.90;;;;;;4182497;28;20089;-57
2023/08/03 03:43:41;;;;;;;4.22;2.10;;;20.20;99.90;;;;;;4179630;28;20068;-57
2023/08/03 03:46:02;;;;;;;3.03;2.25;;;20.20;99.90;;;;;;4176890;28;20044;-57
2023/08/03 03:48:22;;;;;;;4.25;2.83;;;20.20;99.90;;;;;;4179939;28;20112;-57
2023/08/03 03:50:42;;;;;;;5.07;2.03;;;20.20;99.90;;;;;;4179821;28;20044;-57
2023/08/03 03:53:02;;;;;;;5.70;2.08;;;20.20;99.90;;;;;;4179202;28;20095;-57
2023/08/03 03:55:22;;;;;;;5.03;2.17;;;20.20;99.90;;;;;;4180409;28;20117;-57
2023/08/03 03:57:42;;;;;;;2.55;2.03;;;20.10;99.90;;;;;;4182465;28;20056;-57
2023/08/03 04:00:04;;;;;;;2.97;2.67;;;20.20;99.90;;;;;;4182043;28;20064;-57
2023/08/03 04:02:24;;;;;;;;;;;20.20;99.90;;;;;;4181799;28;20067;-57
2023/08/03 04:04:44;;;;;;;3.63;2.17;;;20.20;99.90;;;;;;4180349;28;19976;-57
2023/08/03 04:07:04;;;;;;;1.90;1.65;;;20.20;99.90;;;;;;4180638;28;20055;-57
2023/08/03 04:09:24;;;;;;;3.53;1.95;;;20.20;99.90;;;;;;4181106;28;20116;-57
2023/08/03 04:11:44;;;;;;;2.67;2.05;;;20.20;99.90;;;;;;4177802;28;20048;-57
2023/08/03 04:14:05;;;;;;;4.40;1.83;;;20.20;99.90;;;;;;4181810;28;20386;-57
2023/08/03 04:16:25;;;;;;;7.38;2.65;;;20.30;99.90;;;;;;4182934;28;20236;-57
2023/08/03 04:18:45;;;;;;;3.30;2.58;;;20.20;99.90;;;;;;4173177;28;20065;-57
2023/08/03 04:21:04;;;;;;;4.70;2.33;;;20.30;99.90;;;;;;4177593;28;20236;-57
2023/08/03 04:23:24;;;;;;;2.80;2.40;;;20.30;99.90;;;;;;4179712;28;20109;-57
2023/08/03 04:25:44;;;;;;;4.30;2.85;;;20.40;99.90;;;;;;4182317;28;20232;-57
2023/08/03 04:28:04;;;;;;;3.83;1.63;;;20.50;99.90;;;;;;4181926;28;20082;-57
2023/08/03 04:30:24;;;;;;;3.58;2.50;;;20.40;99.90;;;;;;4178476;28;20084;-57
2023/08/03 04:32:44;;;;;;;3.10;2.63;;;20.50;99.90;;;;;;4180992;28;20385;-57
2023/08/03 04:35:05;;;;;;;2.35;1.88;;;20.50;99.90;;;;;;4179320;28;20055;-57
2023/08/03 04:37:25;;;;;;;2.60;2.17;;;20.40;99.90;;;;;;4178674;28;20060;-56
2023/08/03 04:39:45;;;;;;;3.15;2.22;;;20.50;99.90;;;;;;4179914;28;20062;-57
2023/08/03 04:42:06;;;;;;;2.63;1.65;;;20.60;99.90;;;;;;4181667;28;20047;-57
2023/08/03 04:44:26;;;;;;;4.85;1.75;;;20.60;99.90;;;;;;4177471;28;20076;-57
2023/08/03 04:46:45;;;;;;;2.00;1.58;;;20.70;99.90;;;;;;4177986;28;20051;-57
2023/08/03 04:49:10;;;;;;;2.65;1.70;;;20.70;99.90;;;;;;4180432;28;20056;-57
2023/08/03 04:51:30;;;;;;;5.07;2.10;;;20.70;99.90;;;;;;4179288;28;20148;-57
2023/08/03 04:53:50;;;;;;;3.17;2.03;;;20.80;99.90;;;;;;4179723;28;20061;-57
2023/08/03 04:56:10;;;;;;;3.97;2.05;;;20.70;99.90;;;;;;4180556;28;20156;-57
2023/08/03 04:58:30;;;;;;;1.65;1.55;;;20.80;99.90;;;;;;4184621;28;20048;-57
2023/08/03 05:00:51;;;;;;;4.00;1.48;;;20.90;99.90;;;;;;4179131;28;20084;-57
2023/08/03 05:03:11;;;;;;;7.88;3.42;;;20.80;99.90;;;;;;4178319;28;20109;-57
2023/08/03 05:05:30;;;;;;;2.17;1.88;;;20.90;99.90;;;;;;4184152;28;20139;-57
2023/08/03 05:07:50;;;;;;;1.73;1.52;;;20.90;99.90;;;;;;4182828;28;20095;-57
2023/08/03 05:10:10;;;;;;;4.25;1.73;;;21.00;99.90;;;;;;4180660;28;20075;-57
2023/08/03 05:12:30;;;;;;;1.80;1.52;;;21.00;99.90;;;;;;4182432;28;20052;-57
2023/08/03 05:14:49;;;;;;;3.85;1.33;;;20.90;99.90;;;;;;4180742;28;20103;-59
2023/08/03 05:17:09;;;;;;;4.10;1.83;;;20.90;99.90;;;;;;4181956;28;20363;-59
2023/08/03 05:19:29;;;;;;;3.45;1.63;;;20.90;99.90;;;;;;4182866;28;20084;-59
2023/08/03 05:21:49;;;;;;;4.72;1.45;;;21.00;99.90;;;;;;4183410;28;20098;-59
2023/08/03 05:24:09;;;;;;;3.58;1.20;;;20.90;99.90;;;;;;4182806;28;20076;-59
2023/08/03 05:26:32;;;;;;;2.83;1.80;;;21.00;99.90;;;;;;4180486;28;20064;-59
2023/08/03 05:28:53;;;;;;;3.00;1.88;;;21.10;99.90;;;;;;4182921;28;20075;-59
2023/08/03 05:31:13;;;;;;;6.57;1.48;;;21.30;99.90;;;;;;4188501;28;20067;-59
2023/08/03 05:33:34;;;;;;;2.72;1.50;;;21.40;99.90;;;;;;4185771;28;20088;-59
2023/08/03 05:35:54;;;;;;;3.60;1.40;;;21.60;99.90;;;;;;4179884;28;20040;-59
2023/08/03 05:38:15;;;;;;;4.07;1.20;;;21.70;99.90;;;;;;4183536;28;20082;-59
2023/08/03 05:40:39;;;;;;;3.85;1.80;;;21.80;99.90;;;;;;4188236;28;20071;-59
2023/08/03 05:42:59;;;;;;;1.80;1.70;;;21.80;99.90;;;;;;4178023;28;20049;-59
2023/08/03 05:45:36;;;;;;;2.05;1.85;;;21.90;99.90;;;;;;4181227;28;20430;-59
2023/08/03 05:47:57;;;;;;;3.28;2.65;;;22.00;99.90;;;;;;4182160;28;20052;-59
2023/08/03 05:50:19;;;;;;;2.50;1.80;;;22.10;99.90;;;;;;4184993;28;20043;-59
2023/08/03 05:52:39;;;;;;;1.45;1.35;;;22.10;99.90;;;;;;4182984;28;20043;-59
2023/08/03 05:54:59;;;;;;;2.60;1.40;;;22.20;99.90;;;;;;4180511;28;20117;-59
2023/08/03 05:57:19;;;;;;;2.35;1.45;;;22.30;99.90;;;;;;4182963;28;20254;-59
2023/08/03 05:59:40;;;;;;;6.30;1.73;;;22.40;99.90;;;;;;4181619;28;20056;-59
2023/08/03 06:02:00;;;;;;;1.73;1.50;;;22.70;99.90;;;;;;4181473;28;20378;-62
2023/08/03 06:04:20;;;;;;;1.88;1.42;;;23.00;99.90;;;;;;4182283;28;20049;-58
2023/08/03 06:06:41;;;;;;;3.53;1.30;;;23.00;99.90;;;;;;4179067;28;20415;-59
2023/08/03 06:09:01;;;;;;;3.35;1.65;;;23.10;99.90;;;;;;4177906;28;20053;-59
2023/08/03 06:11:21;;;;;;;1.55;1.17;;;23.20;99.90;;;;;;4181629;28;20048;-59
2023/08/03 06:13:45;;;;;;;2.05;1.02;;;23.40;99.90;;;;;;4185795;28;20084;-59
2023/08/03 06:16:10;;;;;;;2.75;1.10;;;23.60;99.90;;;;;;4180064;28;20387;-59
2023/08/03 06:18:32;;;;;;;4.65;1.02;;;23.90;99.90;;;;;;4182034;28;20375;-60
2023/08/03 06:20:52;;;;;;;1.10;1.10;;;24.00;99.90;;;;;;4181558;28;20113;-59
2023/08/03 06:23:23;;;;;;;1.95;1.20;;;24.20;99.90;;;;;;4182025;28;20056;-60
2023/08/03 06:25:47;;;;;;;2.17;1.05;;;24.00;99.90;;;;;;4181817;28;20079;-59
2023/08/03 06:28:10;;;;;;;2.85;1.20;;;24.10;99.90;;;;;;4181331;28;20101;-59
2023/08/03 06:30:30;;;;;;;;;;;24.20;99.90;;;;;;4181112;28;20132;-59
2023/08/03 06:32:50;;;;;;;2.13;1.05;;;24.10;99.90;;;;;;4180586;28;19940;-59
2023/08/03 06:35:36;;;;;;;3.22;1.00;;;24.10;99.90;;;;;;4179256;28;20086;-59
2023/08/03 06:37:59;;;;;;;3.75;1.33;;;23.50;99.90;;;;;;4182707;28;20052;-59
2023/08/03 06:40:20;;;;;;;1.83;1.10;;;23.20;99.90;;;;;;4179812;28;20271;-59
2023/08/03 06:42:41;;;;;;;4.78;1.10;;;23.10;99.90;;;;;;4179764;28;20085;-59
2023/08/03 06:45:01;;;;;;;1.00;1.00;;;23.10;99.90;;;;;;4181388;28;20048;-59
2023/08/03 06:47:21;;;;;;;1.77;1.33;;;23.00;99.90;;;;;;4182009;28;20075;-60
2023/08/03 06:49:41;;;;;;;3.28;1.10;;;22.80;99.90;;;;;;4179173;28;20052;-60
2023/08/03 06:52:01;;;;;;;4.03;1.45;;;22.70;99.90;;;;;;4182281;28;20040;-59
2023/08/03 06:54:22;;;;;;;5.05;1.30;;;22.70;99.90;;;;;;4184397;28;20092;-59
2023/08/03 06:56:42;;;;;;;1.95;1.30;;;22.70;99.90;;;;;;4188791;28;20059;-59
2023/08/03 06:59:01;;;;;;;4.18;1.17;;;22.80;99.90;;;;;;4179800;28;20071;-59
2023/08/03 07:01:21;;;;;;;2.33;1.50;;;22.90;99.90;;;;;;4181397;28;20048;-59
2023/08/03 07:03:41;;;;;;;3.40;1.17;;;23.00;99.90;;;;;;4185726;28;20362;-59
2023/08/03 07:06:04;;;;;;;2.35;1.20;;;23.00;99.90;;;;;;4189253;28;20055;-59
2023/08/03 07:08:24;;;;;;;1.33;1.05;;;23.00;99.90;;;;;;4178749;28;20044;-59
2023/08/03 07:10:44;;;;;;;5.97;1.25;;;23.20;99.90;;;;;;4182962;28;20051;-59
2023/08/03 07:13:04;;;;;;;3.35;1.42;;;23.20;99.90;;;;;;4183539;28;20049;-59
2023/08/03 07:15:25;;;;;;;12.07;1.38;;;23.10;99.90;;;;;;4180071;28;20228;-59
2023/08/03 07:17:44;;;;;;;3.03;1.45;;;23.20;99.90;;;;;;4180539;28;20096;-59
2023/08/03 07:20:07;;;;;;;2.95;1.30;;;23.40;99.90;;;;;;4179880;28;20053;-59
2023/08/03 07:22:29;;;;;;;6.38;1.40;;;23.80;99.90;;;;;;4182344;28;20043;-59
2023/08/03 07:24:49;;;;;;;1.38;0.90;;;24.30;99.90;;;;;;4180866;28;20087;-59
2023/08/03 07:27:09;;;;;;;1.60;0.90;;;24.60;99.90;;;;;;4181782;28;20148;-59
2023/08/03 07:29:29;;;;;;;1.20;0.95;;;25.00;99.90;;;;;;4179493;28;20356;-59
2023/08/03 07:31:49;;;;;;;3.35;1.00;;;25.20;99.90;;;;;;4179314;28;20152;-59
2023/08/03 07:34:09;;;;;;;2.05;0.90;;;25.00;99.90;;;;;;4179603;28;20043;-59
2023/08/03 07:36:30;;;;;;;1.45;0.95;;;25.20;99.90;;;;;;4182965;28;20119;-59
2023/08/03 07:38:52;;;;;;;3.10;1.13;;;25.40;99.90;;;;;;4183469;28;20111;-59
2023/08/03 07:41:12;;;;;;;2.67;0.90;;;25.50;99.90;;;;;;4178665;28;20068;-59
2023/08/03 07:43:32;;;;;;;1.85;1.25;;;25.70;99.90;;;;;;4180014;28;20048;-59
2023/08/03 07:45:52;;;;;;;1.80;1.05;;;25.70;99.90;;;;;;4180315;28;20268;-59
2023/08/03 07:48:12;;;;;;;1.65;1.55;;;25.70;99.90;;;;;;4181448;28;20401;-59
2023/08/03 07:50:32;;;;;;;0.90;0.90;;;25.80;99.90;;;;;;4181264;28;20132;-59
2023/08/03 07:52:52;;;;;;;1.08;0.90;;;25.80;99.90;;;;;;4180906;28;20090;-59
2023/08/03 07:55:12;;;;;;;1.98;1.00;;;25.70;99.90;;;;;;4179552;28;20109;-59
2023/08/03 07:57:33;;;;;;;1.27;0.80;;;25.50;99.90;;;;;;4178323;28;20060;-59
2023/08/03 07:59:53;;;;;;;6.50;1.02;;;25.60;99.90;;;;;;4181448;28;20056;-59
2023/08/03 08:02:13;;;;;;;1.67;0.80;;;25.60;99.90;;;;;;4182664;28;20040;-59
2023/08/03 08:04:33;;;;;;;3.47;1.02;;;25.30;99.90;;;;;;4177545;28;20082;-59
2023/08/03 08:06:53;;;;;;;0.80;0.80;;;24.80;99.90;;;;;;4178168;28;20233;-59
2023/08/03 08:09:13;;;;;;;2.90;0.90;;;24.90;99.90;;;;;;4179989;28;20083;-59
2023/08/03 08:11:33;;;;;;;3.50;1.00;;;24.70;99.90;;;;;;4179596;28;20060;-59
2023/08/03 08:13:55;;;;;;;2.65;0.90;;;24.90;99.90;;;;;;4179632;28;20068;-59
2023/08/03 08:16:16;;;;;;;3.88;0.90;;;24.80;99.90;;;;;;4180500;28;20039;-59
2023/08/03 08:18:36;;;;;;;1.83;1.20;;;24.90;99.90;;;;;;4180818;28;20043;-59
2023/08/03 08:20:58;;;;;;;1.77;1.00;;;25.10;99.90;;;;;;4183730;28;20060;-59
2023/08/03 08:23:18;;;;;;;2.72;1.05;;;25.10;99.90;;;;;;4176312;28;20393;-59
2023/08/03 08:25:38;;;;;;;1.25;1.13;;;25.30;99.90;;;;;;4181023;28;20051;-60
2023/08/03 08:27:59;;;;;;;2.28;0.80;;;25.30;99.90;;;;;;4185503;28;20279;-59
2023/08/03 08:30:19;;;;;;;2.42;0.90;;;25.10;99.90;;;;;;4180079;28;20049;-59
2023/08/03 08:32:39;;;;;;;2.58;1.00;;;25.40;99.90;;;;;;4178354;28;20352;-59
2023/08/03 08:34:59;;;;;;;1.48;0.90;;;25.70;99.90;;;;;;4183215;28;20163;-59
2023/08/03 08:37:19;;;;;;;1.60;0.80;;;26.30;99.90;;;;;;4178885;28;20051;-59
2023/08/03 08:39:39;;;;;;;4.97;0.90;;;26.60;99.90;;;;;;4174389;28;20049;-59
2023/08/03 08:42:12;;;;;;;5.00;1.02;;;26.60;99.90;;;;;;4179340;28;20371;-61
2023/08/03 08:44:32;;;;;;;1.10;1.00;;;26.90;99.90;;;;;;4180513;28;20048;-61
2023/08/03 08:46:52;;;;;;;6.57;1.10;;;27.10;99.90;;;;;;4180304;28;20092;-62
2023/08/03 08:49:13;;;;;;;2.08;0.80;;;27.30;99.90;;;;;;4181389;28;20051;-61
2023/08/03 08:51:37;;;;;;;2.95;1.42;;;27.30;99.90;;;;;;4180684;28;20256;-61
2023/08/03 08:54:00;;;;;;;1.23;0.93;;;27.50;99.60;;;;;;4178808;28;20075;-61
2023/08/03 08:56:23;;;;;;;2.70;1.05;;;27.90;99.70;;;;;;4178851;28;20105;-61
2023/08/03 08:58:45;;;;;;;2.05;0.80;;;27.60;99.20;;;;;;4180386;28;20115;-61
2023/08/03 09:01:08;;;;;;;2.08;0.80;;;27.10;99.70;;;;;;4177092;28;20289;-61
2023/08/03 09:03:46;;;;;;;1.80;0.90;;;26.80;99.90;;;;;;4176234;28;20071;-61
2023/08/03 09:06:09;;;;;;;2.63;0.80;;;26.50;99.90;;;;;;4180249;28;20063;-61
2023/08/03 09:08:54;;;;;;;6.30;3.63;;;26.70;99.90;;;;;;4181523;28;20094;-61
2023/08/03 09:11:14;;;;;;;5.78;1.52;;;26.60;99.90;;;;;;4180149;28;20091;-61
2023/08/03 09:13:35;;;;;;;15.93;6.95;;;26.50;99.90;;;;;;4180562;28;20048;-62
2023/08/03 09:15:55;;;;;;;2.17;1.52;;;26.50;99.90;;;;;;4179883;28;20371;-61
2023/08/03 09:18:15;;;;;;;1.90;0.90;;;26.60;99.90;;;;;;4180437;28;20167;-62
2023/08/03 09:20:35;;;;;;;3.80;1.65;;;26.60;98.50;;;;;;4179475;28;20041;-61
2023/08/03 09:22:59;;;;;;;1.42;0.90;;;26.50;98.40;;;;;;4178225;28;20375;-62
2023/08/03 09:25:22;;;;;;;3.03;0.82;;;26.50;97.70;;;;;;4179577;28;20076;-61
2023/08/03 09:27:59;;;;;;;3.97;1.00;;;26.40;98.00;;;;;;4180464;28;20140;-61
2023/08/03 09:30:21;;;;;;;0.80;0.80;;;26.60;98.40;;;;;;4178016;28;20075;-61
2023/08/03 09:32:42;;;;;;;3.00;0.90;;;26.60;98.80;;;;;;4180527;28;20088;-61
2023/08/03 09:35:17;;;;;;;3.38;0.80;;;26.70;98.80;;;;;;4177825;28;20102;-61
2023/08/03 09:37:37;;;;;;;1.63;0.80;;;27.00;97.90;;;;;;4177953;28;20428;-61
2023/08/03 09:40:03;;;;;;;0.90;0.90;;;27.60;98.00;;;;;;4178597;28;20231;-61
2023/08/03 09:42:24;;;;;;;1.98;0.70;;;28.10;97.50;;;;;;4179093;28;20113;-62
2023/08/03 09:44:48;;;;;;;2.30;0.75;;;28.60;96.40;;;;;;4180063;28;20079;-62
2023/08/03 09:47:09;;;;;;;3.90;0.98;;;28.80;95.80;;;;;;4179370;28;20087;-62
2023/08/03 09:49:31;;;;;;;1.13;0.70;;;29.30;95.30;;;;;;4179730;28;20413;-61
2023/08/03 09:51:54;;;;;;;0.70;0.70;;;29.70;94.40;;;;;;4182685;28;20071;-62
2023/08/03 09:54:46;;;;;;;0.63;0.63;;;29.20;94.90;;;;;;4177030;28;20237;-62
2023/08/03 09:57:13;;;;;;;1.70;0.70;;;29.50;96.10;;;;;;4179633;28;20112;-61
2023/08/03 09:59:40;;;;;;;3.67;1.30;;;30.30;95.30;;;;;;4186530;28;20248;-61
2023/08/03 10:02:01;;;;;;;1.67;0.63;;;30.50;94.90;;;;;;4181721;28;20415;-61
2023/08/03 10:04:28;;;;;;;1.98;0.70;;;30.40;94.30;;;;;;4179356;28;20041;-62
2023/08/03 10:06:55;;;;;;;0.85;0.70;;;30.00;93.80;;;;;;4184350;28;20117;-62
2023/08/03 10:09:21;;;;;;;1.98;0.88;;;30.10;94.20;;;;;;4189115;28;20063;-62
2023/08/03 10:11:53;;;;;;;0.80;0.77;;;30.20;94.00;;;;;;4183101;28;20052;-62
2023/08/03 10:14:16;;;;;;;0.90;0.90;;;30.50;94.40;;;;;;4182290;28;20079;-61
2023/08/03 10:16:37;;;;;;;2.72;0.90;;;31.00;93.30;;;;;;4182350;28;20071;-63
2023/08/03 10:18:58;;;;;;;1.42;0.60;;;31.50;93.30;;;;;;4182096;28;20043;-61
2023/08/03 10:21:20;;;;;;;1.67;0.70;;;31.40;92.10;;;;;;4181128;28;20079;-62
2023/08/03 10:24:07;;;;;;;1.48;0.90;;;31.70;92.40;;;;;;4183402;28;20116;-62
2023/08/03 10:26:28;;;;;;;2.78;0.80;;;31.80;91.70;;;;;;4179033;28;20068;-61
2023/08/03 10:28:48;;;;;;;3.10;0.60;;;31.70;92.60;;;;;;4178755;28;20064;-62
2023/08/03 10:31:10;;;;;;;2.33;0.70;;;31.90;93.10;;;;;;4181341;28;20087;-62
2023/08/03 10:33:51;;;;;;;0.80;0.60;;;32.00;91.40;;;;;;4186979;28;20232;-61
2023/08/03 10:36:37;;;;;;;0.75;0.60;;;32.00;91.30;;;;;;4180056;28;20316;-62
2023/08/03 10:39:11;;;;;;;0.90;0.60;;;32.10;92.20;;;;;;4180841;28;20275;-62
2023/08/03 10:41:37;;;;;;;1.23;0.68;;;31.90;91.10;;;;;;4182515;28;20043;-61
2023/08/03 10:44:09;;;;;;;0.63;0.60;;;32.30;90.70;;;;;;4181032;28;20236;-62
2023/08/03 10:46:39;;;;;;;1.85;0.60;;;32.20;90.30;;;;;;4180776;28;20041;-64
2023/08/03 10:49:20;;;;;;;3.42;0.60;;;32.30;90.20;;;;;;4180784;28;20252;-65
2023/08/03 10:51:40;;;;;;;1.38;0.60;;;32.10;90.40;;;;;;4179417;28;20044;-64
2023/08/03 10:54:00;;;;;;;0.65;0.60;;;31.90;90.50;;;;;;4178107;28;20287;-64
2023/08/03 10:56:20;;;;;;;2.33;0.60;;;32.50;91.40;;;;;;4182261;28;20370;-65
2023/08/03 10:58:47;;;;;;;3.10;0.50;;;32.80;89.80;;;;;;4182584;28;20044;-65
2023/08/03 11:01:08;;;;;;;0.57;0.55;;;32.80;90.00;;;;;;4179230;28;20062;-64
2023/08/03 11:03:37;;;;;;;1.00;0.60;;;32.10;89.50;;;;;;4179209;28;20064;-64
2023/08/03 11:05:57;;;;;;;1.25;1.25;;;30.90;90.40;;;;;;4180724;28;20048;-64
2023/08/03 11:08:19;;;;;;;2.55;0.80;;;31.30;90.30;;;;;;4181242;28;20060;-65
2023/08/03 11:10:39;;;;;;;1.27;0.60;;;31.80;91.10;;;;;;4174102;28;20044;-64
2023/08/03 11:13:00;;;;;;;2.05;0.70;;;31.90;89.30;;;;;;4177824;28;20378;-65
2023/08/03 11:15:19;;;;;;;1.30;0.63;;;31.80;90.40;;;;;;4184080;28;20067;-64
2023/08/03 11:17:40;;;;;;;0.85;0.70;;;32.10;90.90;;;;;;4179315;28;20044;-64
2023/08/03 11:20:01;;;;;;;1.75;0.60;;;32.10;90.00;;;;;;4179561;28;20119;-64
2023/08/03 11:22:22;;;;;;;0.80;0.60;;;32.30;90.00;;;;;;4186044;28;20111;-64
2023/08/03 11:24:42;;;;;;;0.63;0.60;;;32.00;89.00;;;;;;4178301;28;20049;-64
2023/08/03 11:27:04;;;;;;;0.70;0.60;;;31.70;90.20;;;;;;4176976;28;20105;-65
2023/08/03 11:29:25;;;;;;;0.77;0.60;;;31.40;89.40;;;;;;4180760;28;20063;-64
2023/08/03 11:31:44;;;;;;;1.13;0.70;;;30.80;90.90;;;;;;4173808;28;20414;-65
2023/08/03 11:34:05;;;;;;;1.00;0.60;;;30.90;91.30;;;;;;4175543;28;20064;-65
2023/08/03 11:36:25;;;;;;;6.07;0.70;;;30.60;90.50;;;;;;4179560;28;20398;-65
2023/08/03 11:38:46;;;;;;;3.35;0.70;;;30.30;90.60;;;;;;4180916;28;20444;-64
2023/08/03 11:41:07;;;;;;;2.28;1.02;;;30.20;90.60;;;;;;4178988;28;20044;-64
2023/08/03 11:43:30;;;;;;;3.72;0.70;;;29.90;90.70;;;;;;4181478;28;20082;-65
2023/08/03 11:45:54;;;;;;;1.58;0.70;;;30.00;91.70;;;;;;4180222;28;20044;-65
2023/08/03 11:48:19;;;;;;;1.08;0.70;;;30.60;91.70;;;;;;4184254;28;20286;-65
2023/08/03 11:50:43;;;;;;;1.08;0.60;;;31.30;91.10;;;;;;4180485;28;20048;-65
2023/08/03 11:53:03;;;;;;;1.58;0.60;;;31.90;90.80;;;;;;4179567;28;20044;-65
2023/08/03 11:55:33;;;;;;;1.30;0.60;;;31.90;89.50;;;;;;4182226;28;20390;-65
2023/08/03 11:58:10;;;;;;;1.15;0.52;;;31.90;90.50;;;;;;4176948;28;20049;-64
2023/08/03 12:00:31;;;;;;;0.63;0.63;;;31.50;89.60;;;;;;4183065;28;20382;-65
2023/08/03 12:02:50;;;;;;;1.00;0.70;;;31.10;90.20;;;;;;4180123;28;20059;-65
2023/08/03 12:05:11;;;;;;;1.45;0.70;;;30.60;89.60;;;;;;4180913;28;20087;-65
2023/08/03 12:07:40;;;;;;;1.23;0.63;;;30.30;90.80;;;;;;4181996;28;20409;-65
2023/08/03 12:10:00;;;;;;;0.73;0.70;;;30.50;90.60;;;;;;4179755;28;20162;-65
2023/08/03 12:12:20;;;;;;;1.67;0.70;;;30.90;90.40;;;;;;4180513;28;20095;-65
2023/08/03 12:14:41;;;;;;;1.67;0.70;;;30.80;90.10;;;;;;4179261;28;20100;-65
2023/08/03 12:17:01;;;;;;;2.78;0.80;;;30.30;90.70;;;;;;4178203;28;20079;-65
2023/08/03 12:19:21;;;;;;;0.93;0.65;;;30.60;91.00;;;;;;4179445;28;20244;-65
2023/08/03 12:21:41;;;;;;;2.10;0.70;;;31.00;90.60;;;;;;4184550;28;20048;-65
2023/08/03 12:24:02;;;;;;;1.02;0.70;;;31.00;90.60;;;;;;4179913;28;20087;-65
2023/08/03 12:26:22;;;;;;;0.95;0.65;;;31.00;90.30;;;;;;4178654;28;20139;-65
2023/08/03 12:28:41;;;;;;;0.73;0.73;;;31.20;90.00;;;;;;4181297;28;20060;-65
2023/08/03 12:31:01;;;;;;;1.55;0.50;;;31.90;90.90;;;;;;4179457;28;20313;-66